Time;durP1;ratioP1;P1;durP2;ratioP2;P2;SDS_P1;SDS_P2;PMS_P1;PMS_P2;Temp;Humidity;BMP_temperature;BMP_pressure;BME280_temperature;BME280_humidity;BME280_pressure;Samples;Min_cycle;Max_cycle;Signal;HPM_P1;HPM_P2
2022/11/24 00:00:27;;;;;;;;;;;;;;;-3.61;93.39;98960.09;4915616;29;20046;-81
2022/11/24 00:02:54;;;;;;;;;;;;;;;-3.65;93.22;98962.19;4915354;29;20033;-81
2022/11/24 00:05:22;;;;;;;;;;;;;;;-3.64;93.26;98966.50;4916344;29;19938;-81
2022/11/24 00:07:49;;;;;;;;;;;;;;;-3.63;93.01;98967.31;4916410;29;19935;-81
2022/11/24 00:10:16;;;;;;;;;;;;;;;-3.61;93.36;98979.38;4916431;29;20030;-81
2022/11/24 00:12:43;;;;;;;;;;;;;;;-3.58;93.14;98973.78;4916599;29;19935;-82
2022/11/24 00:15:10;;;;;;;;;;;;;;;-3.57;93.34;98980.75;4916296;29;19935;-82
2022/11/24 00:17:36;;;;;;;;;;;;;;;-3.57;93.23;98982.53;4916306;29;19931;-82
2022/11/24 00:20:04;;;;;;;;;;;;;;;-3.60;93.29;98977.56;4915931;29;19938;-80
2022/11/24 00:22:31;;;;;;;;;;;;;;;-3.62;93.51;98977.75;4916306;29;19979;-81
2022/11/24 00:24:58;;;;;;;;;;;;;;;-3.58;93.52;98984.34;4915657;29;20489;-81
2022/11/24 00:27:25;;;;;;;;;;;;;;;-3.59;93.56;98977.41;4916303;29;19931;-80
2022/11/24 00:29:52;;;;;;;;;;;;;;;-3.56;93.52;98982.38;4914350;29;20041;-81
2022/11/24 00:32:19;;;;;;;;;;;;;;;-3.59;93.27;98981.88;4916279;29;19931;-81
2022/11/24 00:34:46;;;;;;;;;;;;;;;-3.61;93.10;98983.84;4915903;29;19937;-81
2022/11/24 00:37:13;;;;;;;;;;;;;;;-3.63;93.00;98981.34;4915574;29;19938;-81
2022/11/24 00:39:40;;;;;;;;;;;;;;;-3.66;93.21;98989.56;4915746;29;19943;-81
2022/11/24 00:42:06;;;;;;;;;;;;;;;-3.61;93.10;98987.28;4915493;29;20025;-81
2022/11/24 00:44:33;;;;;;;;;;;;;;;-3.61;93.17;98992.56;4915806;29;19963;-81
2022/11/24 00:47:01;;;;;;;;;;;;;;;-3.61;92.97;99007.56;4914386;29;19938;-82
2022/11/24 00:49:30;;;;;;;;;;;;;;;-3.65;93.33;99009.69;4915892;29;19935;-81
2022/11/24 00:51:56;;;;;;;;;;;;;;;-3.65;93.41;99004.41;4915119;29;20457;-81
2022/11/24 00:54:23;;;;;;;;;;;;;;;-3.64;93.51;99010.53;4915648;29;19944;-80
2022/11/24 00:56:50;;;;;;;;;;;;;;;-3.61;93.40;99008.41;4914345;29;19954;-82
2022/11/24 00:59:21;;;;;;;;;;;;;;;-3.63;93.02;99015.63;4914135;29;20313;-81
2022/11/24 01:01:50;;;;;;;;;;;;;;;-3.64;92.99;99016.63;4914808;29;19931;-81
2022/11/24 01:04:17;;;;;;;;;;;;;;;-3.63;92.83;99014.81;4914990;29;19935;-82
2022/11/24 01:06:44;;;;;;;;;;;;;;;-3.64;92.98;99015.81;4915346;29;20033;-81
2022/11/24 01:09:11;;;;;;;;;;;;;;;-3.66;92.83;99023.84;4929810;29;19989;-81
2022/11/24 01:14:24;;;;;;;;;;;;;;;-3.64;93.07;99031.63;4929907;29;19931;-82
2022/11/24 01:16:51;;;;;;;;;;;;;;;-3.68;92.94;99028.44;4915303;29;19986;-81
2022/11/24 01:19:18;;;;;;;;;;;;;;;-3.68;92.84;99030.28;4915543;29;19966;-81
2022/11/24 01:21:45;;;;;;;;;;;;;;;-3.68;92.61;99023.19;4915406;29;19935;-81
2022/11/24 01:24:12;;;;;;;;;;;;;;;-3.66;92.59;99028.31;4914898;29;19935;-82
2022/11/24 01:26:38;;;;;;;;;;;;;;;-3.65;92.46;99035.22;4915255;29;19931;-82
2022/11/24 01:29:06;;;;;;;;;;;;;;;-3.65;92.52;99030.78;4914824;29;19953;-82
2022/11/24 01:31:33;;;;;;;;;;;;;;;-3.63;92.51;99034.09;4913823;29;19931;-82
2022/11/24 01:33:59;;;;;;;;;;;;;;;-3.63;92.28;99028.00;4914757;29;19941;-79
2022/11/24 01:36:26;;;;;;;;;;;;;;;-3.63;92.39;99030.63;4915040;29;20415;-81
2022/11/24 01:38:53;;;;;;;;;;;;;;;-3.61;92.22;99032.13;4914865;29;19953;-81
2022/11/24 01:41:21;;;;;;;;;;;;;;;-3.63;91.87;99034.09;4915042;29;19963;-81
2022/11/24 01:43:48;;;;;;;;;;;;;;;-3.67;91.96;99031.91;4915029;29;19931;-82
2022/11/24 01:46:23;;;;;;;;;;;;;;;-3.70;91.76;99038.31;4913773;29;19938;-82
2022/11/24 01:49:02;;;;;;;;;;;;;;;-3.74;91.71;99031.72;4913808;29;20038;-81
2022/11/24 01:51:30;;;;;;;;;;;;;;;-3.76;91.39;99036.31;4929762;29;19931;-81
2022/11/24 01:54:10;;;;;;;;;;;;;;;-3.83;91.43;99043.16;4917333;29;19931;-80
2022/11/24 01:56:43;;;;;;;;;;;;;;;-3.79;91.61;99047.16;4920812;29;19941;-80
2022/11/24 01:59:10;;;;;;;;;;;;;;;-3.78;91.53;99047.00;4917026;29;20041;-80
2022/11/24 02:01:37;;;;;;;;;;;;;;;-3.77;91.53;99059.22;4913493;29;19938;-82
2022/11/24 02:04:05;;;;;;;;;;;;;;;-3.79;91.51;99052.44;4914587;29;19931;-81
2022/11/24 02:06:32;;;;;;;;;;;;;;;-3.77;91.67;99061.84;4914990;29;20417;-82
2022/11/24 02:08:59;;;;;;;;;;;;;;;-3.76;91.51;99057.41;4913632;29;20432;-82
2022/11/24 02:11:27;;;;;;;;;;;;;;;-3.80;91.51;99070.06;4914393;29;19935;-82
2022/11/24 02:13:54;;;;;;;;;;;;;;;-3.81;91.37;99062.31;4930736;29;19970;-83
2022/11/24 02:16:21;;;;;;;;;;;;;;;-3.85;91.28;99071.50;4915714;29;19931;-80
2022/11/24 02:18:48;;;;;;;;;;;;;;;-3.87;91.44;99078.72;4919211;29;19931;-81
2022/11/24 02:21:15;;;;;;;;;;;;;;;-3.89;91.34;99078.06;4919629;29;20017;-82
2022/11/24 02:23:48;;;;;;;;;;;;;;;-3.96;90.66;99076.00;4919617;29;20423;-83
2022/11/24 02:26:33;;;;;;;;;;;;;;;-3.99;90.39;99078.94;4919428;29;19978;-83
2022/11/24 02:29:01;;;;;;;;;;;;;;;-4.04;90.29;99083.84;4920404;29;19935;-83
2022/11/24 02:31:27;;;;;;;;;;;;;;;-4.05;90.36;99076.91;4933921;29;19931;-81
2022/11/24 02:33:54;;;;;;;;;;;;;;;-4.03;90.71;99079.38;4942419;29;20317;-83
2022/11/24 02:36:21;;;;;;;;;;;;;;;-4.04;90.63;99083.84;4916084;29;19938;-82
2022/11/24 02:38:48;;;;;;;;;;;;;;;-4.06;90.44;99077.88;4909429;29;20031;-82
2022/11/24 02:41:16;;;;;;;;;;;;;;;-4.09;90.52;99080.00;4888016;29;20311;-80
2022/11/24 02:43:57;;;;;;;;;;;;;;;-4.11;90.24;99076.69;4890474;29;19947;-81
2022/11/24 02:46:24;;;;;;;;;;;;;;;-4.11;90.51;99074.88;4908220;29;19931;-82
2022/11/24 02:48:51;;;;;;;;;;;;;;;-4.13;90.52;99082.09;4889292;29;20458;-82
2022/11/24 02:51:21;;;;;;;;;;;;;;;-4.18;90.56;99076.44;4906899;29;19938;-81
2022/11/24 02:53:51;;;;;;;;;;;;;;;-4.19;90.77;99085.31;4907847;29;19937;-81
2022/11/24 02:56:18;;;;;;;;;;;;;;;-4.23;90.95;99089.22;4907907;29;19937;-82
2022/11/24 02:58:45;;;;;;;;;;;;;;;-4.23;90.69;99086.59;4907915;29;20297;-81
2022/11/24 03:01:12;;;;;;;;;;;;;;;-4.25;90.67;99091.19;4905464;29;19932;-81
2022/11/24 03:03:39;;;;;;;;;;;;;;;-4.31;90.52;99091.78;4906775;29;20029;-81
2022/11/24 03:06:06;;;;;;;;;;;;;;;-4.34;90.84;99090.25;4907782;29;19993;-81
2022/11/24 03:08:33;;;;;;;;;;;;;;;-4.31;90.77;99092.59;4903518;29;19936;-82
2022/11/24 03:11:01;;;;;;;;;;;;;;;-4.27;90.99;99093.97;4894047;29;19935;-82
2022/11/24 03:13:28;;;;;;;;;;;;;;;-4.30;90.90;99094.28;4909839;29;19979;-83
2022/11/24 03:15:55;;;;;;;;;;;;;;;-4.31;90.90;99094.41;4899014;29;19965;-83
2022/11/24 03:18:22;;;;;;;;;;;;;;;-4.33;90.75;99091.91;4905529;29;19932;-82
2022/11/24 03:20:48;;;;;;;;;;;;;;;-4.35;90.84;99096.53;4898097;29;20038;-83
2022/11/24 03:23:15;;;;;;;;;;;;;;;-4.36;90.82;99095.66;4888877;29;19985;-82
2022/11/24 03:25:42;;;;;;;;;;;;;;;-4.39;90.70;99100.41;4895803;29;20402;-82
2022/11/24 03:28:09;;;;;;;;;;;;;;;-4.45;90.65;99099.19;4897152;29;19932;-83
2022/11/24 03:30:36;;;;;;;;;;;;;;;-4.44;90.39;99103.47;4904245;29;19958;-81
2022/11/24 03:33:03;;;;;;;;;;;;;;;-4.46;90.00;99104.59;4897333;29;19931;-83
2022/11/24 03:35:30;;;;;;;;;;;;;;;-4.51;89.96;99105.03;4897804;29;19935;-81
2022/11/24 03:37:57;;;;;;;;;;;;;;;-4.55;89.68;99111.59;4920101;29;20030;-82
2022/11/24 03:40:24;;;;;;;;;;;;;;;-4.60;89.82;99100.66;4915706;29;19931;-83
2022/11/24 03:42:51;;;;;;;;;;;;;;;-4.54;89.75;99113.22;4922020;29;19935;-81
2022/11/24 03:45:18;;;;;;;;;;;;;;;-4.57;89.91;99114.34;4926515;29;19934;-82
2022/11/24 03:48:06;;;;;;;;;;;;;;;-4.55;89.64;99118.66;4924939;29;19947;-81
2022/11/24 03:50:32;;;;;;;;;;;;;;;-4.55;89.57;99121.31;4924812;29;19938;-82
2022/11/24 03:52:59;;;;;;;;;;;;;;;-4.58;89.68;99122.44;4923533;29;19966;-83
2022/11/24 03:55:26;;;;;;;;;;;;;;;-4.61;89.68;99117.41;4916541;29;20363;-81
2022/11/24 03:57:53;;;;;;;;;;;;;;;-4.59;89.67;99126.00;4916641;29;20016;-83
2022/11/24 04:00:20;;;;;;;;;;;;;;;-4.54;89.99;99129.03;4916783;29;20026;-81
2022/11/24 04:02:47;;;;;;;;;;;;;;;-4.52;89.67;99139.44;4899792;29;20354;-82
2022/11/24 04:05:14;;;;;;;;;;;;;;;-4.54;89.27;99136.13;4916286;29;19931;-82
2022/11/24 04:07:41;;;;;;;;;;;;;;;-4.61;89.49;99138.50;4930954;29;20027;-83
2022/11/24 04:10:08;;;;;;;;;;;;;;;-4.63;89.53;99137.84;4899088;29;19931;-80
2022/11/24 04:12:44;;;;;;;;;;;;;;;-4.58;89.82;99135.59;4916469;29;19931;-81
2022/11/24 04:15:16;;;;;;;;;;;;;;;-4.58;89.44;99136.41;4898721;29;20310;-82
2022/11/24 04:17:48;;;;;;;;;;;;;;;-4.60;88.96;99134.91;4869576;29;19953;-82
2022/11/24 04:20:15;;;;;;;;;;;;;;;-4.62;88.98;99140.31;4899540;29;20759;-82
2022/11/24 04:22:42;;;;;;;;;;;;;;;-4.62;88.81;99136.84;4916165;29;20258;-81
2022/11/24 04:25:10;;;;;;;;;;;;;;;-4.61;89.05;99147.25;4913860;29;20065;-81
2022/11/24 04:27:38;;;;;;;;;;;;;;;-4.62;88.93;99147.38;4912973;29;19931;-83
2022/11/24 04:30:05;;;;;;;;;;;;;;;-4.60;89.12;99155.97;4915654;29;19931;-81
2022/11/24 04:32:32;;;;;;;;;;;;;;;-4.62;89.01;99148.19;4899669;29;20049;-82
2022/11/24 04:34:59;;;;;;;;;;;;;;;-4.66;88.71;99146.00;4913862;29;19934;-85
2022/11/24 04:37:26;;;;;;;;;;;;;;;-4.79;88.47;99152.41;4918797;29;20437;-84
2022/11/24 04:39:54;;;;;;;;;;;;;;;-4.76;88.46;99153.09;4912675;29;19963;-82
2022/11/24 04:42:21;;;;;;;;;;;;;;;-4.80;88.26;99161.28;4930074;29;19939;-82
2022/11/24 04:44:47;;;;;;;;;;;;;;;-4.81;88.34;99174.59;4914619;29;19957;-83
2022/11/24 04:47:15;;;;;;;;;;;;;;;-4.83;88.08;99166.84;4901859;29;20021;-85
2022/11/24 04:49:42;;;;;;;;;;;;;;;-4.81;88.02;99167.53;4929698;29;19931;-85
2022/11/24 04:52:10;;;;;;;;;;;;;;;-4.77;88.11;99169.88;4573341;29;10000006;-85
2022/11/24 04:54:37;;;;;;;;;;;;;;;-4.75;88.06;99178.47;4895736;29;19937;-83
2022/11/24 04:57:04;;;;;;;;;;;;;;;-4.69;88.01;99183.97;4910587;29;20057;-84
2022/11/24 04:59:31;;;;;;;;;;;;;;;-4.68;88.18;99187.47;4913295;29;19931;-83
2022/11/24 05:01:57;;;;;;;;;;;;;;;-4.71;88.22;99185.94;4925326;29;19931;-83
2022/11/24 05:04:28;;;;;;;;;;;;;;;-4.70;88.28;99192.88;4911378;29;20034;-83
2022/11/24 05:07:09;;;;;;;;;;;;;;;-4.71;88.27;99193.00;4920635;29;19931;-84
2022/11/24 05:12:30;;;;;;;;;;;;;;;-4.69;88.45;99198.97;4909239;29;19935;-84
2022/11/24 05:14:57;;;;;;;;;;;;;;;-4.67;88.70;99203.13;4908546;29;19993;-86
2022/11/24 05:17:32;;;;;;;;;;;;;;;-4.63;88.79;99211.56;4910087;29;19937;-84
2022/11/24 05:20:01;;;;;;;;;;;;;;;-4.57;88.80;99217.09;4895541;29;20460;-82
2022/11/24 05:22:29;;;;;;;;;;;;;;;-4.50;88.96;99217.34;4912485;29;19957;-85
2022/11/24 05:24:56;;;;;;;;;;;;;;;-4.45;88.64;99222.22;4907718;29;19938;-84
2022/11/24 05:27:23;;;;;;;;;;;;;;;-4.48;88.73;99225.97;4909425;29;19932;-87
2022/11/24 05:29:50;;;;;;;;;;;;;;;-4.51;88.51;99228.84;4898725;29;19946;-85
2022/11/24 05:32:17;;;;;;;;;;;;;;;-4.49;88.61;99226.91;4907478;29;20420;-85
2022/11/24 05:34:44;;;;;;;;;;;;;;;-4.48;88.48;99225.09;4911900;29;19931;-85
2022/11/24 05:37:11;;;;;;;;;;;;;;;-4.48;88.27;99227.72;4898155;29;19941;-85
2022/11/24 05:39:39;;;;;;;;;;;;;;;-4.52;88.20;99243.00;4911139;29;19934;-84
2022/11/24 05:44:52;;;;;;;;;;;;;;;-4.56;87.95;99241.63;4910495;29;19935;-84
2022/11/24 05:47:19;;;;;;;;;;;;;;;-4.51;87.79;99249.94;4929904;29;20010;-84
2022/11/24 05:49:46;;;;;;;;;;;;;;;-4.54;87.54;99250.22;4915689;29;19931;-85
2022/11/24 05:52:13;;;;;;;;;;;;;;;-4.61;87.39;99251.75;4895511;29;20373;-85
2022/11/24 05:54:39;;;;;;;;;;;;;;;-4.59;87.09;99258.53;4896604;29;19931;-84
2022/11/24 05:57:06;;;;;;;;;;;;;;;-4.59;87.27;99262.97;4905700;29;19971;-84
2022/11/24 05:59:33;;;;;;;;;;;;;;;-4.55;87.45;99258.28;4908415;29;19975;-85
2022/11/24 06:02:00;;;;;;;;;;;;;;;-4.48;87.45;99268.09;4913165;29;19930;-84
2022/11/24 06:04:27;;;;;;;;;;;;;;;-4.44;87.04;99274.75;4915939;29;19931;-83
2022/11/24 06:06:54;;;;;;;;;;;;;;;-4.42;86.89;99275.44;4915611;29;19931;-84
2022/11/24 06:09:23;;;;;;;;;;;;;;;-4.43;86.85;99279.06;4914147;29;20346;-84
2022/11/24 06:11:50;;;;;;;;;;;;;;;-4.39;87.02;99283.03;4916944;29;19981;-83
2022/11/24 06:14:17;;;;;;;;;;;;;;;-4.38;86.75;99287.34;4916730;29;19938;-83
2022/11/24 06:16:44;;;;;;;;;;;;;;;-4.37;86.84;99291.66;4916851;29;20476;-85
2022/11/24 06:19:11;;;;;;;;;;;;;;;-4.31;86.82;99297.31;4917692;29;20637;-83
2022/11/24 06:21:37;;;;;;;;;;;;;;;-4.24;86.87;99293.97;4922449;29;19931;-84
2022/11/24 06:24:04;;;;;;;;;;;;;;;-4.20;86.75;99294.53;4945062;29;19962;-83
2022/11/24 06:26:31;;;;;;;;;;;;;;;-4.21;86.36;99296.31;4917047;29;19954;-83
2022/11/24 06:28:58;;;;;;;;;;;;;;;-4.19;86.35;99302.28;4915274;29;19994;-82
2022/11/24 06:31:25;;;;;;;;;;;;;;;-4.17;85.99;99302.16;4898054;29;20477;-83
2022/11/24 06:33:52;;;;;;;;;;;;;;;-4.11;86.00;99298.94;4913622;29;19935;-84
2022/11/24 06:36:19;;;;;;;;;;;;;;;-4.11;85.57;99304.19;4913573;29;19935;-84
2022/11/24 06:38:46;;;;;;;;;;;;;;;-4.06;85.45;99304.59;4915396;29;19938;-85
2022/11/24 06:41:13;;;;;;;;;;;;;;;-4.04;85.65;99299.19;4914944;29;19931;-85
2022/11/24 06:43:40;;;;;;;;;;;;;;;-4.07;85.70;99302.13;4911770;29;19931;-85
2022/11/24 06:46:07;;;;;;;;;;;;;;;-4.02;85.77;99302.53;4914594;29;19931;-85
2022/11/24 06:48:34;;;;;;;;;;;;;;;-3.99;85.46;99310.13;4921690;29;19957;-85
2022/11/24 06:51:03;;;;;;;;;;;;;;;-3.96;85.62;99308.03;4927299;29;19938;-86
2022/11/24 06:53:30;;;;;;;;;;;;;;;-3.96;85.43;99309.84;4936564;29;19938;-86
2022/11/24 06:56:00;;;;;;;;;;;;;;;-3.98;85.19;99306.53;4914577;29;19982;-85
2022/11/24 06:58:27;;;;;;;;;;;;;;;-3.95;85.40;99308.84;4915119;29;19931;-85
2022/11/24 07:00:54;;;;;;;;;;;;;;;-3.92;85.46;99309.41;4913882;29;19931;-84
2022/11/24 07:03:21;;;;;;;;;;;;;;;-3.87;85.31;99308.13;4915260;29;20341;-84
2022/11/24 07:05:48;;;;;;;;;;;;;;;-3.81;85.46;99312.84;4929855;29;19935;-84
2022/11/24 07:08:15;;;;;;;;;;;;;;;-3.76;85.40;99307.97;4915484;29;19970;-84
2022/11/24 07:10:46;;;;;;;;;;;;;;;-3.76;85.41;99308.78;4915856;29;20009;-86
2022/11/24 07:13:13;;;;;;;;;;;;;;;-3.79;85.38;99306.44;4916068;29;20610;-87
2022/11/24 07:15:40;;;;;;;;;;;;;;;-3.73;85.71;99302.41;4930741;29;19931;-85
2022/11/24 07:18:07;;;;;;;;;;;;;;;-3.72;85.48;99299.63;4917494;29;19931;-85
2022/11/24 07:20:34;;;;;;;;;;;;;;;-3.70;85.43;99299.47;4919793;29;20002;-87
2022/11/24 07:23:01;;;;;;;;;;;;;;;-3.71;85.53;99300.44;4917547;29;19979;-86
2022/11/24 07:25:37;;;;;;;;;;;;;;;-3.67;85.39;99299.19;4931377;29;19931;-86
2022/11/24 07:28:04;;;;;;;;;;;;;;;-3.62;85.38;99299.59;4920228;29;19959;-88
2022/11/24 07:30:31;;;;;;;;;;;;;;;-3.64;85.10;99303.34;4937120;29;19938;-83
2022/11/24 07:32:59;;;;;;;;;;;;;;;-3.65;84.85;99304.31;4920886;29;19931;-85
2022/11/24 07:35:31;;;;;;;;;;;;;;;-3.74;84.94;99306.84;4905701;29;19931;-85
2022/11/24 07:37:58;;;;;;;;;;;;;;;-3.69;84.98;99309.06;4922519;29;19999;-84
2022/11/24 07:40:28;;;;;;;;;;;;;;;-3.70;84.45;99307.38;4916776;29;19931;-85
2022/11/24 07:42:56;;;;;;;;;;;;;;;-3.67;84.48;99316.81;4917179;29;19930;-85
2022/11/24 07:45:25;;;;;;;;;;;;;;;-3.70;84.62;99310.00;4931455;29;19938;-82
2022/11/24 07:47:52;;;;;;;;;;;;;;;-3.67;84.52;99322.94;4915075;29;19937;-85
2022/11/24 07:50:19;;;;;;;;;;;;;;;-3.69;84.26;99324.88;4922637;29;20417;-84
2022/11/24 07:52:46;;;;;;;;;;;;;;;-3.68;84.58;99323.91;4915723;29;20033;-84
2022/11/24 07:55:14;;;;;;;;;;;;;;;-3.60;84.38;99326.63;4913546;29;20441;-83
2022/11/24 07:57:41;;;;;;;;;;;;;;;-3.50;84.33;99326.59;4937847;29;19931;-83
2022/11/24 08:00:10;;;;;;;;;;;;;;;-3.56;84.03;99322.72;4914539;29;19960;-81
2022/11/24 08:02:37;;;;;;;;;;;;;;;-3.58;84.01;99327.31;4914046;29;19953;-84
2022/11/24 08:05:05;;;;;;;;;;;;;;;-3.64;83.80;99330.56;4913390;29;19931;-84
2022/11/24 08:07:32;;;;;;;;;;;;;;;-3.77;83.69;99337.97;4911292;29;19938;-84
2022/11/24 08:09:59;;;;;;;;;;;;;;;-3.83;83.69;99343.81;4913311;29;20313;-83
2022/11/24 08:12:28;;;;;;;;;;;;;;;-3.84;83.97;99342.97;4917015;29;20469;-85
2022/11/24 08:14:55;;;;;;;;;;;;;;;-3.83;83.90;99344.63;4917030;29;19931;-84
2022/11/24 08:17:22;;;;;;;;;;;;;;;-3.77;83.64;99343.25;4916854;29;19938;-83
2022/11/24 08:19:49;;;;;;;;;;;;;;;-3.75;83.65;99354.47;4918694;29;19941;-83
2022/11/24 08:22:16;;;;;;;;;;;;;;;-3.72;83.39;99355.03;4917474;29;19931;-84
2022/11/24 08:24:48;;;;;;;;;;;;;;;-3.68;83.51;99358.19;4929945;29;19931;-85
2022/11/24 08:27:15;;;;;;;;;;;;;;;-3.59;83.50;99359.97;4920998;29;20026;-87
2022/11/24 08:29:43;;;;;;;;;;;;;;;-3.51;83.64;99354.78;4914287;29;19931;-85
2022/11/24 08:32:10;;;;;;;;;;;;;;;-3.51;83.49;99365.34;4914023;29;20034;-85
2022/11/24 08:34:44;;;;;;;;;;;;;;;-3.47;83.06;99370.31;4914831;29;20279;-85
2022/11/24 08:37:11;;;;;;;;;;;;;;;-3.46;82.78;99372.81;4913522;29;19935;-85
2022/11/24 08:39:44;;;;;;;;;;;;;;;-3.42;82.64;99378.63;4913944;29;19978;-85
2022/11/24 08:42:11;;;;;;;;;;;;;;;-3.37;82.32;99385.13;4916659;29;19955;-87
2022/11/24 08:44:38;;;;;;;;;;;;;;;-3.31;82.18;99381.94;4915840;29;20027;-87
2022/11/24 08:47:05;;;;;;;;;;;;;;;-3.23;82.11;99383.00;4915544;29;19931;-84
2022/11/24 08:49:32;;;;;;;;;;;;;;;-3.19;81.90;99382.56;4913192;29;20343;-85
2022/11/24 08:51:59;;;;;;;;;;;;;;;-3.12;81.98;99383.63;4920512;29;20394;-84
2022/11/24 08:54:26;;;;;;;;;;;;;;;-3.17;81.70;99385.88;4917000;29;19938;-83
2022/11/24 08:56:53;;;;;;;;;;;;;;;-3.30;81.46;99388.03;4918121;29;20026;-86
2022/11/24 08:59:20;;;;;;;;;;;;;;;-3.33;81.50;99396.25;4916735;29;19991;-87
2022/11/24 09:01:48;;;;;;;;;;;;;;;-3.43;81.35;99400.72;4914158;29;19930;-87
2022/11/24 09:04:15;;;;;;;;;;;;;;;-3.57;81.76;99397.59;4917482;29;20291;-84
2022/11/24 09:06:42;;;;;;;;;;;;;;;-3.60;82.12;99399.69;4975578;23;19958;-86
2022/11/24 09:09:13;;;;;;;;;;;;;;;-3.83;81.93;99400.00;4920348;29;19931;-92
2022/11/24 09:11:40;;;;;;;;;;;;;;;-3.97;82.19;99396.03;4898556;29;19978;-84
2022/11/24 09:14:07;;;;;;;;;;;;;;;-4.00;82.45;99404.22;4920520;29;19987;-84
2022/11/24 09:16:34;;;;;;;;;;;;;;;-3.97;82.39;99400.47;4916158;29;19935;-85
2022/11/24 09:19:02;;;;;;;;;;;;;;;-4.05;82.31;99403.81;4883612;29;20338;-84
2022/11/24 09:21:30;;;;;;;;;;;;;;;-4.03;81.75;99406.31;4882950;29;19930;-85
2022/11/24 09:23:57;;;;;;;;;;;;;;;-4.08;81.78;99401.44;4884626;29;20405;-86
2022/11/24 09:26:25;;;;;;;;;;;;;;;-4.06;81.87;99404.78;4920279;29;19970;-87
2022/11/24 09:28:55;;;;;;;;;;;;;;;-3.96;81.87;99412.69;4905508;29;20087;-87
2022/11/24 09:31:23;;;;;;;;;;;;;;;-3.92;81.57;99404.34;4913575;29;19986;-86
2022/11/24 09:33:51;;;;;;;;;;;;;;;-3.83;81.43;99407.09;4924503;29;20035;-84
2022/11/24 09:36:18;;;;;;;;;;;;;;;-3.73;80.96;99405.28;4910189;29;19979;-86
2022/11/24 09:38:45;;;;;;;;;;;;;;;-3.70;80.57;99407.63;4922880;29;20453;-86
2022/11/24 09:41:17;;;;;;;;;;;;;;;-3.65;80.16;99409.81;4905648;29;19931;-83
2022/11/24 09:43:48;;;;;;;;;;;;;;;-3.57;80.01;99404.66;4886475;29;19954;-84
2022/11/24 09:46:17;;;;;;;;;;;;;;;-3.55;79.74;99408.81;4921238;29;19931;-83
2022/11/24 09:48:48;;;;;;;;;;;;;;;-3.69;79.30;99413.75;4906087;29;20065;-83
2022/11/24 09:51:17;;;;;;;;;;;;;;;-3.68;79.41;99418.03;4908604;29;19935;-88
2022/11/24 09:53:47;;;;;;;;;;;;;;;-3.62;79.03;99415.66;4891812;29;19939;-89
2022/11/24 09:56:17;;;;;;;;;;;;;;;-3.53;79.06;99419.25;4892289;29;19931;-84
2022/11/24 09:58:53;;;;;;;;;;;;;;;-3.54;79.18;99422.88;4917479;29;20614;-81
2022/11/24 10:01:25;;;;;;;;;;;;;;;-3.40;78.91;99414.47;4898270;29;19935;-82
2022/11/24 10:03:53;;;;;;;;;;;;;;;-3.22;78.82;99411.88;4916745;29;20086;-82
2022/11/24 10:06:24;;;;;;;;;;;;;;;-3.02;78.35;99414.44;4896326;29;19939;-82
2022/11/24 10:09:03;;;;;;;;;;;;;;;-3.03;77.55;99410.13;4895092;29;20363;-82
2022/11/24 10:11:46;;;;;;;;;;;;;;;-3.25;77.87;99414.81;4916169;29;19942;-84
2022/11/24 10:14:17;;;;;;;;;;;;;;;-3.38;77.96;99419.59;4908501;29;20474;-84
2022/11/24 10:16:56;;;;;;;;;;;;;;;-3.36;78.36;99415.03;4917202;29;20340;-84
2022/11/24 10:19:28;;;;;;;;;;;;;;;-3.43;78.24;99421.84;4919196;29;20101;-84
2022/11/24 10:22:02;;;;;;;;;;;;;;;-3.68;78.63;99426.78;4906654;29;20282;-85
2022/11/24 10:24:49;;;;;;;;;;;;;;;-3.67;78.92;99425.81;4889442;29;20362;-82
2022/11/24 10:27:21;;;;;;;;;;;;;;;-3.69;79.02;99430.41;4918256;29;19991;-83
2022/11/24 10:29:48;;;;;;;;;;;;;;;-3.63;79.02;99426.34;4921198;29;19947;-84
2022/11/24 10:32:26;;;;;;;;;;;;;;;-3.58;79.26;99435.50;4904268;29;20374;-86
2022/11/24 10:34:53;;;;;;;;;;;;;;;-3.54;79.24;99430.78;4919538;29;19931;-84
2022/11/24 10:37:27;;;;;;;;;;;;;;;-3.54;79.14;99428.97;4899449;29;20030;-84
2022/11/24 10:39:59;;;;;;;;;;;;;;;-3.53;79.36;99437.72;4899877;29;19931;-84
2022/11/24 10:42:35;;;;;;;;;;;;;;;-3.49;79.34;99437.28;4881979;29;19938;-84
2022/11/24 10:45:16;;;;;;;;;;;;;;;-3.51;79.41;99438.41;4891248;29;20027;-83
2022/11/24 10:47:43;;;;;;;;;;;;;;;-3.56;79.36;99430.91;4898505;29;19942;-84
2022/11/24 10:50:21;;;;;;;;;;;;;;;-3.63;79.50;99426.34;4917137;29;19931;-84
2022/11/24 10:53:08;;;;;;;;;;;;;;;-3.69;79.73;99430.41;4915564;29;19938;-84
2022/11/24 10:55:53;;;;;;;;;;;;;;;-3.75;79.70;99436.22;4909183;29;19930;-84
2022/11/24 10:58:25;;;;;;;;;;;;;;;-3.77;79.85;99443.47;4901156;29;19931;-84
2022/11/24 11:00:57;;;;;;;;;;;;;;;-3.75;79.98;99444.13;4885007;29;19966;-85
2022/11/24 11:03:25;;;;;;;;;;;;;;;-3.77;79.84;99440.84;4893303;29;20402;-84
2022/11/24 11:05:54;;;;;;;;;;;;;;;-3.77;79.98;99443.47;4924721;29;19931;-86
2022/11/24 11:08:25;;;;;;;;;;;;;;;-3.81;80.19;99448.19;4919727;29;19931;-86
2022/11/24 11:11:13;;;;;;;;;;;;;;;-3.81;80.18;99445.53;4921633;29;20374;-86
2022/11/24 11:13:50;;;;;;;;;;;;;;;-3.90;79.72;99448.19;4883325;29;19931;-85
2022/11/24 11:16:24;;;;;;;;;;;;;;;-3.95;80.00;99448.59;4903245;29;20006;-86
2022/11/24 11:18:52;;;;;;;;;;;;;;;-3.96;80.13;99450.44;4885152;29;20342;-86
2022/11/24 11:21:37;;;;;;;;;;;;;;;-3.99;80.09;99448.06;4908559;29;20377;-85
2022/11/24 11:24:15;;;;;;;;;;;;;;;-4.12;79.87;99455.44;4885071;29;20038;-85
2022/11/24 11:26:43;;;;;;;;;;;;;;;-4.22;80.17;99446.72;4905505;29;19931;-86
2022/11/24 11:29:15;;;;;;;;;;;;;;;-4.21;80.32;99448.38;4907862;29;19931;-83
2022/11/24 11:32:15;;;;;;;;;;;;;;;-4.12;80.32;99449.34;4926878;29;20426;-85
2022/11/24 11:35:04;;;;;;;;;;;;;;;-4.11;79.99;99445.72;4897866;29;19932;-84
2022/11/24 11:37:31;;;;;;;;;;;;;;;-4.24;80.11;99446.00;4914945;29;19969;-86
2022/11/24 11:39:58;;;;;;;;;;;;;;;-4.32;80.33;99448.50;4902730;29;19963;-86
2022/11/24 11:42:31;;;;;;;;;;;;;;;-4.39;80.29;99445.59;4922453;29;20190;-85
2022/11/24 11:45:36;;;;;;;;;;;;;;;-4.40;80.66;99457.94;4916800;29;20317;-86
2022/11/24 11:48:04;;;;;;;;;;;;;;;-4.34;80.82;99459.19;4894466;29;19931;-86
2022/11/24 11:50:42;;;;;;;;;;;;;;;-4.38;81.06;99461.28;4922001;29;19931;-88
2022/11/24 11:53:34;;;;;;;;;;;;;;;-4.46;81.23;99460.28;4921424;29;19966;-86
2022/11/24 11:56:25;;;;;;;;;;;;;;;-4.48;80.87;99463.06;4923045;29;19930;-85
2022/11/24 11:59:03;;;;;;;;;;;;;;;-4.54;81.21;99471.50;4918559;29;20314;-86
2022/11/24 12:01:57;;;;;;;;;;;;;;;-4.62;81.77;99466.09;4918716;29;19931;-87
2022/11/24 12:04:39;;;;;;;;;;;;;;;-4.55;82.12;99475.13;4887401;29;20419;-87
2022/11/24 12:07:15;;;;;;;;;;;;;;;-4.55;82.22;99483.03;4882491;29;20110;-87
2022/11/24 12:09:54;;;;;;;;;;;;;;;-4.57;82.33;99474.41;4886818;29;19931;-84
2022/11/24 12:12:23;;;;;;;;;;;;;;;-4.55;82.03;99472.47;4529595;29;10000320;-82
2022/11/24 12:14:53;;;;;;;;;;;;;;;-4.57;82.34;99464.69;4877668;29;20490;-85
2022/11/24 12:17:39;;;;;;;;;;;;;;;-4.53;82.19;99470.56;4868354;29;20317;-83
2022/11/24 12:20:06;;;;;;;;;;;;;;;-4.54;82.19;99474.13;4874422;29;19978;-83
2022/11/24 12:22:40;;;;;;;;;;;;;;;-4.50;82.50;99485.25;4883906;29;19931;-83
2022/11/24 12:25:27;;;;;;;;;;;;;;;-4.52;82.40;99482.75;4870440;29;20043;-83
2022/11/24 12:28:00;;;;;;;;;;;;;;;-4.56;82.68;99478.69;4861330;29;20410;-83
2022/11/24 12:30:29;;;;;;;;;;;;;;;-4.63;82.47;99475.78;4880046;29;19949;-81
2022/11/24 12:32:59;;;;;;;;;;;;;;;-4.75;82.34;99481.31;4873065;29;20071;-83
2022/11/24 12:35:44;;;;;;;;;;;;;;;-4.77;82.67;99477.97;4871330;29;20756;-82
2022/11/24 12:38:17;;;;;;;;;;;;;;;-4.79;82.75;99484.19;4877365;29;19938;-81
2022/11/24 12:41:04;;;;;;;;;;;;;;;-4.82;82.95;99492.38;4870023;29;20258;-83
2022/11/24 12:43:52;;;;;;;;;;;;;;;-4.88;82.95;99490.28;4910093;29;19931;-83
2022/11/24 12:46:32;;;;;;;;;;;;;;;-4.88;83.26;99486.81;4887848;29;19931;-83
2022/11/24 12:48:59;;;;;;;;;;;;;;;-4.85;83.24;99489.19;4911189;29;20033;-83
2022/11/24 12:51:34;;;;;;;;;;;;;;;-4.97;83.20;99501.59;4911279;29;20568;-83
2022/11/24 12:54:02;;;;;;;;;;;;;;;-4.98;83.50;99507.84;4910770;29;19957;-84
2022/11/24 12:56:47;;;;;;;;;;;;;;;-5.00;83.51;99509.78;4904777;29;19931;-82
2022/11/24 12:59:17;;;;;;;;;;;;;;;-4.99;83.78;99508.78;4897229;29;19930;-83
2022/11/24 13:01:50;;;;;;;;;;;;;;;-4.99;83.69;99503.53;4909710;29;19931;-83
2022/11/24 13:04:17;;;;;;;;;;;;;;;-4.96;83.81;99510.34;4905855;29;19935;-83
2022/11/24 13:06:53;;;;;;;;;;;;;;;-4.98;83.80;99512.28;4914532;29;20413;-84